Terminal Aerodrome Forecast
Issued by NWS Bismarck, ND

Current Version | Previous Version | Text Only | Print | Product List | Glossary On
Versions: 1 2 3 4 5 6 7 8 9 10 11 12 13 14
845
FTUS43 KBIS 061120
TAFISN
TAF
KISN 061120Z 0612/0712 36015G22KT 6SM FU SCT250
     FM061300 36021G30KT 6SM FU BKN250
     FM070000 01014KT P6SM FEW250
     FM070200 01009KT P6SM FEW250=

USA.gov is the U.S. government's official web portal to all federal, state and local government web resources and services.